createdAt,value
2018-12-07T00:00:37.316Z,0
2018-12-07T00:01:38.803Z,0
2018-12-07T00:02:40.466Z,0
2018-12-07T00:03:41.984Z,0
2018-12-07T00:04:43.516Z,0
2018-12-07T00:05:45.440Z,0
2018-12-07T00:06:46.938Z,0
2018-12-07T00:07:48.408Z,0
2018-12-07T00:08:50.176Z,0
2018-12-07T00:09:51.750Z,0
2018-12-07T00:10:53.315Z,0
2018-12-07T00:11:55.064Z,0
2018-12-07T00:12:56.572Z,0
2018-12-07T00:13:58.634Z,0
2018-12-07T00:15:00.505Z,0
2018-12-07T00:16:02.023Z,0
2018-12-07T00:17:04.113Z,0
2018-12-07T00:18:05.566Z,0
2018-12-07T00:19:07.025Z,0
2018-12-07T00:20:08.585Z,0
2018-12-07T00:21:10.099Z,0
2018-12-07T00:22:11.597Z,0
2018-12-07T00:23:13.432Z,0
2018-12-07T00:24:14.872Z,0
2018-12-07T00:25:16.403Z,0
2018-12-07T00:26:17.848Z,0
2018-12-07T00:27:19.486Z,0
2018-12-07T00:28:20.959Z,0
2018-12-07T00:29:22.430Z,0
2018-12-07T00:30:24.323Z,0
2018-12-07T00:31:25.860Z,0
2018-12-07T00:32:27.374Z,0
2018-12-07T00:33:29.362Z,0
2018-12-07T00:34:30.957Z,0
2018-12-07T00:35:32.426Z,0
2018-12-07T00:36:34.123Z,0
2018-12-07T00:37:35.568Z,0
2018-12-07T00:38:37.071Z,0
2018-12-07T00:39:38.577Z,0
2018-12-07T00:40:40.024Z,0
2018-12-07T00:41:41.721Z,0
2018-12-07T00:42:43.155Z,0
2018-12-07T00:43:45.170Z,0
2018-12-07T00:44:48.329Z,0
2018-12-07T00:45:48.745Z,0
2018-12-07T00:46:50.308Z,0
2018-12-07T00:47:52.055Z,0
2018-12-07T00:48:53.632Z,0
2018-12-07T00:49:55.226Z,0
2018-12-07T00:50:57.098Z,0
2018-12-07T00:51:59.268Z,0
2018-12-07T00:53:01.272Z,0
2018-12-07T00:54:03.221Z,0
2018-12-07T00:55:04.714Z,0
2018-12-07T00:56:06.272Z,0
2018-12-07T00:57:09.461Z,0
2018-12-07T00:58:11.214Z,0
2018-12-07T00:59:12.740Z,0
2018-12-07T01:00:14.651Z,0
2018-12-07T01:01:30.917Z,0
2018-12-07T01:02:39.512Z,0
2018-12-07T01:03:50.421Z,0
2018-12-07T01:04:59.115Z,0
2018-12-07T01:06:08.509Z,0
2018-12-07T01:07:18.422Z,0
2018-12-07T01:08:25.921Z,0
2018-12-07T01:09:34.922Z,0
2018-12-07T01:10:51.420Z,0
2018-12-07T01:11:57.924Z,0
2018-12-07T01:12:59.481Z,0
2018-12-07T01:14:00.939Z,0
2018-12-07T01:15:02.385Z,0
2018-12-07T01:16:04.045Z,0
2018-12-07T01:17:05.488Z,0
2018-12-07T01:18:06.903Z,0
2018-12-07T01:19:08.574Z,0
2018-12-07T01:20:10.134Z,0
2018-12-07T01:21:11.876Z,0
2018-12-07T01:22:13.346Z,0
2018-12-07T01:23:14.904Z,0
2018-12-07T01:24:16.883Z,0
2018-12-07T01:25:18.344Z,0
2018-12-07T01:26:19.889Z,0
2018-12-07T01:27:21.390Z,0
2018-12-07T01:28:22.897Z,0
2018-12-07T01:29:24.653Z,0
2018-12-07T01:30:26.236Z,0
2018-12-07T01:31:27.924Z,0
2018-12-07T01:32:29.403Z,0
2018-12-07T01:33:30.971Z,0
2018-12-07T01:34:32.434Z,0
2018-12-07T01:35:33.877Z,0
2018-12-07T01:36:35.326Z,0
2018-12-07T01:37:36.804Z,0
2018-12-07T01:38:38.427Z,0
2018-12-07T01:39:39.914Z,0
2018-12-07T01:40:41.430Z,0
2018-12-07T01:41:42.866Z,0
2018-12-07T01:42:44.660Z,0
2018-12-07T01:43:46.147Z,0
2018-12-07T01:44:47.548Z,0
2018-12-07T01:45:49.096Z,0
2018-12-07T01:46:50.547Z,0
2018-12-07T01:47:52.027Z,0
2018-12-07T01:48:53.607Z,0
2018-12-07T01:49:55.084Z,0
2018-12-07T01:50:56.531Z,0
2018-12-07T01:51:58.575Z,0
2018-12-07T01:53:00.133Z,0
2018-12-07T01:54:01.607Z,0
2018-12-07T01:55:03.289Z,0
2018-12-07T01:56:04.734Z,0
2018-12-07T01:57:06.758Z,0
2018-12-07T01:58:08.622Z,0
2018-12-07T01:59:10.265Z,0
2018-12-07T02:00:11.723Z,0
2018-12-07T02:01:13.764Z,0
2018-12-07T02:02:15.239Z,0
2018-12-07T02:03:16.861Z,0
2018-12-07T02:04:18.322Z,0
2018-12-07T02:05:19.787Z,0
2018-12-07T02:06:21.784Z,0
2018-12-07T02:07:23.261Z,0
2018-12-07T02:08:24.767Z,0
2018-12-07T02:09:26.334Z,0
2018-12-07T02:10:27.793Z,0
2018-12-07T02:11:29.698Z,0
2018-12-07T02:12:31.116Z,0
2018-12-07T02:13:32.648Z,0
2018-12-07T02:14:34.098Z,0
2018-12-07T02:15:35.833Z,0
2018-12-07T02:16:37.562Z,0
2018-12-07T02:17:39.252Z,0
2018-12-07T02:18:40.719Z,0
2018-12-07T02:19:42.352Z,0
2018-12-07T02:20:43.802Z,0
2018-12-07T02:21:45.292Z,0
2018-12-07T02:22:46.921Z,0
2018-12-07T02:23:48.373Z,0
2018-12-07T02:24:49.858Z,0
2018-12-07T02:25:51.569Z,0
2018-12-07T02:26:52.972Z,0
2018-12-07T02:27:54.705Z,0
2018-12-07T02:28:56.214Z,0
2018-12-07T02:29:57.816Z,0
2018-12-07T02:30:59.265Z,0
2018-12-07T02:32:01.101Z,0
2018-12-07T02:33:02.569Z,0
2018-12-07T02:34:04.112Z,0
2018-12-07T02:35:05.578Z,0
2018-12-07T02:36:07.214Z,0
2018-12-07T02:37:08.747Z,0
2018-12-07T02:38:10.344Z,0
2018-12-07T02:39:11.794Z,0
2018-12-07T02:40:13.879Z,0
2018-12-07T02:41:15.271Z,0
2018-12-07T02:42:16.899Z,0
2018-12-07T02:43:18.357Z,0
2018-12-07T02:44:20.012Z,0
2018-12-07T02:45:21.464Z,0
2018-12-07T02:46:23.109Z,0
2018-12-07T02:47:24.551Z,0
2018-12-07T02:48:26.644Z,0
2018-12-07T02:49:28.104Z,0
2018-12-07T02:50:29.666Z,0
2018-12-07T02:51:31.186Z,0
2018-12-07T02:52:32.773Z,0
2018-12-07T02:53:34.230Z,0
2018-12-07T02:54:36.218Z,0
2018-12-07T02:55:38.072Z,0
2018-12-07T02:56:39.531Z,0
2018-12-07T02:57:41.217Z,0
2018-12-07T02:58:42.676Z,0
2018-12-07T02:59:44.141Z,0
2018-12-07T03:00:46.162Z,0
2018-12-07T03:01:47.638Z,0
2018-12-07T03:02:49.208Z,0
2018-12-07T03:03:50.666Z,0
2018-12-07T03:04:52.290Z,0
2018-12-07T03:05:53.751Z,0
2018-12-07T03:06:55.470Z,0
2018-12-07T03:07:57.280Z,0
2018-12-07T03:08:58.886Z,0
2018-12-07T03:10:00.321Z,0
2018-12-07T03:11:01.766Z,0
2018-12-07T03:12:03.407Z,0
2018-12-07T03:13:04.866Z,0
2018-12-07T03:14:06.312Z,0
2018-12-07T03:15:07.934Z,0
2018-12-07T03:16:09.401Z,0
2018-12-07T03:17:10.872Z,0
2018-12-07T03:18:12.421Z,0
2018-12-07T03:19:13.856Z,0
2018-12-07T03:20:15.509Z,0
2018-12-07T03:21:17.006Z,0
2018-12-07T03:22:18.439Z,0
2018-12-07T03:23:20.092Z,0
2018-12-07T03:24:21.531Z,0
2018-12-07T03:25:22.986Z,0
2018-12-07T03:26:24.611Z,0
2018-12-07T03:27:26.093Z,0
2018-12-07T03:28:27.702Z,0
2018-12-07T03:29:29.184Z,0
2018-12-07T03:30:30.768Z,0
2018-12-07T03:31:32.431Z,0
2018-12-07T03:32:34.350Z,0
2018-12-07T03:33:35.898Z,0
2018-12-07T03:34:37.339Z,0
2018-12-07T03:35:38.821Z,0
2018-12-07T03:36:40.486Z,0
2018-12-07T03:37:42.100Z,0
2018-12-07T03:38:43.632Z,0
2018-12-07T03:39:45.157Z,0
2018-12-07T03:40:47.210Z,0
2018-12-07T03:41:48.660Z,0
2018-12-07T03:42:50.522Z,0
2018-12-07T03:43:52.011Z,0
2018-12-07T03:44:53.625Z,0
2018-12-07T03:45:55.046Z,0
2018-12-07T03:46:56.688Z,0
2018-12-07T03:47:58.626Z,0
2018-12-07T03:49:00.278Z,0
2018-12-07T03:50:01.754Z,0
2018-12-07T03:51:03.460Z,0
2018-12-07T03:52:04.967Z,0
2018-12-07T03:53:06.593Z,0
2018-12-07T03:54:08.087Z,0
2018-12-07T03:55:09.636Z,0
2018-12-07T03:56:11.608Z,0
2018-12-07T03:57:13.084Z,0
2018-12-07T03:58:14.788Z,0
2018-12-07T03:59:16.266Z,0
2018-12-07T04:00:17.754Z,0
2018-12-07T04:01:19.376Z,0
2018-12-07T04:02:20.831Z,0
2018-12-07T04:03:22.270Z,0
2018-12-07T04:04:23.868Z,0
2018-12-07T04:05:25.515Z,0
2018-12-07T04:06:27.769Z,0
2018-12-07T04:07:29.782Z,0
2018-12-07T04:08:31.696Z,0
2018-12-07T04:09:33.306Z,0
2018-12-07T04:10:34.801Z,0
2018-12-07T04:11:36.392Z,0
2018-12-07T04:12:37.859Z,0
2018-12-07T04:13:39.472Z,0
2018-12-07T04:14:40.965Z,0
2018-12-07T04:15:42.591Z,0
2018-12-07T04:16:44.026Z,0
2018-12-07T04:17:45.524Z,0
2018-12-07T04:18:47.073Z,0
2018-12-07T04:19:48.521Z,0
2018-12-07T04:20:50.006Z,0
2018-12-07T04:21:51.642Z,0
2018-12-07T04:22:53.096Z,0
2018-12-07T04:23:54.707Z,0
2018-12-07T04:24:56.166Z,0
2018-12-07T04:25:57.773Z,0
2018-12-07T04:26:59.293Z,0
2018-12-07T04:28:01.083Z,0
2018-12-07T04:29:03.136Z,0
2018-12-07T04:30:04.592Z,0
2018-12-07T04:31:06.009Z,0
2018-12-07T04:32:07.684Z,0
2018-12-07T04:33:09.174Z,0
2018-12-07T04:34:10.739Z,0
2018-12-07T04:35:12.610Z,0
2018-12-07T04:36:14.610Z,0
2018-12-07T04:37:16.027Z,0
2018-12-07T04:38:17.477Z,0
2018-12-07T04:39:19.169Z,0
2018-12-07T04:40:20.746Z,0
2018-12-07T04:41:22.231Z,0
2018-12-07T04:42:23.941Z,0
2018-12-07T04:43:25.757Z,0
2018-12-07T04:44:27.398Z,0
2018-12-07T04:45:28.873Z,0
2018-12-07T04:46:30.868Z,0
2018-12-07T04:47:32.706Z,0
2018-12-07T04:48:34.953Z,0
2018-12-07T04:49:36.647Z,0
2018-12-07T04:50:38.080Z,0
2018-12-07T04:51:39.867Z,0
2018-12-07T04:52:41.977Z,0
2018-12-07T04:53:43.413Z,0
2018-12-07T04:54:44.885Z,0
2018-12-07T04:55:46.527Z,0
2018-12-07T04:56:48.011Z,0
2018-12-07T04:57:49.507Z,0
2018-12-07T04:58:51.021Z,0
2018-12-07T04:59:52.518Z,0
2018-12-07T05:00:54.350Z,0
2018-12-07T05:01:56.373Z,0
2018-12-07T05:02:57.888Z,0
2018-12-07T05:03:59.368Z,0
2018-12-07T05:05:00.933Z,0
2018-12-07T05:06:02.451Z,0
2018-12-07T05:07:04.318Z,0
2018-12-07T05:08:05.882Z,0
2018-12-07T05:09:07.371Z,0
2018-12-07T05:10:08.921Z,0
2018-12-07T05:11:10.374Z,0
2018-12-07T05:12:12.406Z,0
2018-12-07T05:13:14.239Z,0
2018-12-07T05:14:15.752Z,0
2018-12-07T05:15:17.365Z,0
2018-12-07T05:16:18.851Z,0
2018-12-07T05:17:20.351Z,0
2018-12-07T05:18:21.928Z,0
2018-12-07T05:19:23.346Z,0
2018-12-07T05:20:24.825Z,0
2018-12-07T05:21:26.412Z,0
2018-12-07T05:22:27.892Z,0
2018-12-07T05:23:29.381Z,0
2018-12-07T05:24:31.047Z,0
2018-12-07T05:25:32.505Z,0
2018-12-07T05:26:34.093Z,0
2018-12-07T05:27:35.675Z,0
2018-12-07T05:28:37.132Z,0
2018-12-07T05:29:38.609Z,0
2018-12-07T05:30:40.612Z,0
2018-12-07T05:31:42.081Z,0
2018-12-07T05:32:43.585Z,0
2018-12-07T05:33:45.158Z,0
2018-12-07T05:34:46.647Z,0
2018-12-07T05:35:48.154Z,0
2018-12-07T05:36:49.864Z,0
2018-12-07T05:37:51.321Z,0
2018-12-07T05:38:52.767Z,0
2018-12-07T05:39:54.382Z,0
2018-12-07T05:40:55.821Z,0
2018-12-07T05:41:57.258Z,0
2018-12-07T05:42:58.925Z,0
2018-12-07T05:44:00.448Z,0
2018-12-07T05:45:01.937Z,0
2018-12-07T05:46:03.724Z,0
2018-12-07T05:47:05.456Z,0
2018-12-07T05:48:07.000Z,0
2018-12-07T05:49:08.603Z,0
2018-12-07T05:50:10.090Z,0
2018-12-07T05:51:11.600Z,0
2018-12-07T05:52:13.348Z,0
2018-12-07T05:53:14.859Z,0
2018-12-07T05:54:16.361Z,0
2018-12-07T05:55:18.086Z,0
2018-12-07T05:56:19.573Z,0
2018-12-07T05:57:21.781Z,0
2018-12-07T05:58:23.403Z,0
2018-12-07T05:59:24.877Z,0
2018-12-07T06:00:26.477Z,0
2018-12-07T06:01:28.034Z,0
2018-12-07T06:02:29.779Z,0
2018-12-07T06:03:31.275Z,0
2018-12-07T06:04:32.863Z,0
2018-12-07T06:05:34.434Z,0
2018-12-07T06:06:36.221Z,0
2018-12-07T06:07:37.612Z,0
2018-12-07T06:08:39.321Z,0
2018-12-07T06:09:41.063Z,0
2018-12-07T06:10:42.744Z,0
2018-12-07T06:11:44.267Z,0
2018-12-07T06:12:45.840Z,0
2018-12-07T06:13:47.682Z,0
2018-12-07T06:14:49.183Z,0
2018-12-07T06:15:50.737Z,0
2018-12-07T06:16:52.641Z,0
2018-12-07T06:17:54.151Z,0
2018-12-07T06:18:55.686Z,0
2018-12-07T06:19:57.155Z,0
2018-12-07T06:20:58.824Z,0
2018-12-07T06:22:00.301Z,0
2018-12-07T06:23:01.929Z,0
2018-12-07T06:24:03.776Z,0
2018-12-07T06:25:05.343Z,0
2018-12-07T06:26:06.816Z,0
2018-12-07T06:27:08.445Z,0
2018-12-07T06:28:09.937Z,0
2018-12-07T06:29:11.528Z,0
2018-12-07T06:30:12.995Z,0
2018-12-07T06:31:14.611Z,0
2018-12-07T06:32:16.087Z,0
2018-12-07T06:33:18.103Z,0
2018-12-07T06:34:19.878Z,0
2018-12-07T06:35:22.097Z,0
2018-12-07T06:36:24.036Z,0
2018-12-07T06:37:25.503Z,0
2018-12-07T06:38:26.996Z,0
2018-12-07T06:39:28.633Z,0
2018-12-07T06:40:30.079Z,0
2018-12-07T06:41:31.600Z,0
2018-12-07T06:42:33.335Z,0
2018-12-07T06:43:35.218Z,0
2018-12-07T06:44:37.116Z,0
2018-12-07T06:45:38.663Z,0
2018-12-07T06:46:40.136Z,0
2018-12-07T06:47:41.626Z,0
2018-12-07T06:48:43.159Z,0
2018-12-07T06:49:44.631Z,0
2018-12-07T06:50:46.134Z,0
2018-12-07T06:51:47.722Z,0
2018-12-07T06:52:49.188Z,0
2018-12-07T06:53:50.928Z,0
2018-12-07T06:54:52.744Z,0
2018-12-07T06:55:54.295Z,0
2018-12-07T06:56:56.050Z,0
2018-12-07T06:57:57.573Z,0
2018-12-07T06:58:59.613Z,0
2018-12-07T07:00:01.056Z,0
2018-12-07T07:01:02.798Z,0
2018-12-07T07:02:04.243Z,0
2018-12-07T07:03:05.843Z,4
2018-12-07T07:04:07.775Z,4
2018-12-07T07:05:09.264Z,4
2018-12-07T07:06:11.386Z,4
2018-12-07T07:07:12.868Z,4
2018-12-07T07:08:14.315Z,8
2018-12-07T07:09:15.908Z,4
2018-12-07T07:10:17.370Z,8
2018-12-07T07:11:18.843Z,4
2018-12-07T07:12:20.418Z,8
2018-12-07T07:13:21.901Z,8
2018-12-07T07:14:24.152Z,8
2018-12-07T07:15:25.972Z,8
2018-12-07T07:16:27.432Z,8
2018-12-07T07:17:29.088Z,8
2018-12-07T07:18:30.529Z,12
2018-12-07T07:19:32.140Z,12
2018-12-07T07:20:34.000Z,16
2018-12-07T07:21:35.894Z,16
2018-12-07T07:22:37.367Z,16
2018-12-07T07:23:38.959Z,20
2018-12-07T07:24:40.478Z,24
2018-12-07T07:25:42.022Z,24
2018-12-07T07:26:43.512Z,20
2018-12-07T07:27:45.239Z,24
2018-12-07T07:28:47.046Z,24
2018-12-07T07:29:48.510Z,28
2018-12-07T07:30:50.122Z,32
2018-12-07T07:31:51.646Z,24
2018-12-07T07:32:53.988Z,32
2018-12-07T07:33:55.462Z,32
2018-12-07T07:34:57.273Z,36
2018-12-07T07:35:58.667Z,32
2018-12-07T07:37:00.139Z,32
2018-12-07T07:38:01.767Z,32
2018-12-07T07:39:03.233Z,36
2018-12-07T07:40:04.694Z,36
2018-12-07T07:41:06.694Z,40
2018-12-07T07:42:08.192Z,40
2018-12-07T07:43:09.681Z,44
2018-12-07T07:44:11.261Z,44
2018-12-07T07:45:12.744Z,48
2018-12-07T07:46:14.311Z,60
2018-12-07T07:47:16.711Z,60
2018-12-07T07:48:18.210Z,56
2018-12-07T07:49:19.660Z,52
2018-12-07T07:50:21.310Z,64
2018-12-07T07:51:22.817Z,48
2018-12-07T07:52:24.344Z,52
2018-12-07T07:53:26.044Z,60
2018-12-07T07:54:27.581Z,72
2018-12-07T07:55:29.101Z,68
2018-12-07T07:56:30.759Z,88
2018-12-07T07:57:32.272Z,72
2018-12-07T07:58:33.757Z,64
2018-12-07T07:59:35.268Z,84
2018-12-07T08:00:36.754Z,100
2018-12-07T08:01:38.419Z,112
2018-12-07T08:02:39.856Z,116
2018-12-07T08:03:41.443Z,124
2018-12-07T08:04:42.996Z,96
2018-12-07T08:05:44.947Z,104
2018-12-07T08:06:46.474Z,124
2018-12-07T08:07:48.016Z,128
2018-12-07T08:08:49.742Z,112
2018-12-07T08:09:51.220Z,104
2018-12-07T08:10:52.736Z,108
2018-12-07T08:11:54.228Z,84
2018-12-07T08:12:55.772Z,108
2018-12-07T08:13:57.249Z,112
2018-12-07T08:14:58.696Z,116
2018-12-07T08:16:00.123Z,120
2018-12-07T08:17:01.818Z,104
2018-12-07T08:18:03.264Z,116
2018-12-07T08:19:04.691Z,124
2018-12-07T08:20:06.343Z,144
2018-12-07T08:21:07.852Z,140
2018-12-07T08:22:09.426Z,136
2018-12-07T08:23:14.641Z,136
2018-12-07T08:24:12.490Z,148
2018-12-07T08:25:13.951Z,160
2018-12-07T08:26:15.657Z,168
2018-12-07T08:27:17.090Z,184
2018-12-07T08:28:18.690Z,172
2018-12-07T08:29:20.133Z,224
2018-12-07T08:30:21.897Z,192
2018-12-07T08:31:23.330Z,236
2018-12-07T08:32:24.871Z,212
2018-12-07T08:33:26.749Z,212
2018-12-07T08:34:28.353Z,264
2018-12-07T08:35:29.847Z,252
2018-12-07T08:36:31.346Z,252
2018-12-07T08:37:32.890Z,300
2018-12-07T08:38:34.404Z,284
2018-12-07T08:39:35.873Z,256
2018-12-07T08:40:37.476Z,288
2018-12-07T08:41:38.953Z,352
2018-12-07T08:42:40.827Z,284
2018-12-07T08:43:42.983Z,304
2018-12-07T08:44:44.602Z,328
2018-12-07T08:45:46.128Z,272
2018-12-07T08:46:47.711Z,356
2018-12-07T08:47:49.200Z,312
2018-12-07T08:48:50.783Z,332
2018-12-07T08:49:52.263Z,304
2018-12-07T08:50:53.724Z,328
2018-12-07T08:51:55.168Z,316
2018-12-07T08:52:56.817Z,236
2018-12-07T08:53:58.254Z,240
2018-12-07T08:54:59.857Z,288
2018-12-07T08:56:01.362Z,284
2018-12-07T08:57:02.776Z,216
2018-12-07T08:58:04.522Z,300
2018-12-07T08:59:05.979Z,300
2018-12-07T09:00:07.516Z,368
2018-12-07T09:01:09.085Z,332
2018-12-07T09:02:10.543Z,348
2018-12-07T09:03:12.179Z,324
2018-12-07T09:04:13.754Z,280
2018-12-07T09:05:15.458Z,328
2018-12-07T09:06:16.895Z,260
2018-12-07T09:07:18.567Z,248
2018-12-07T09:08:19.982Z,320
2018-12-07T09:09:21.609Z,248
2018-12-07T09:10:23.116Z,252
2018-12-07T09:11:24.714Z,244
2018-12-07T09:12:26.274Z,244
2018-12-07T09:13:28.010Z,264
2018-12-07T09:14:29.454Z,284
2018-12-07T09:15:31.061Z,224
2018-12-07T09:16:32.494Z,256
2018-12-07T09:17:34.146Z,204
2018-12-07T09:18:35.576Z,284
2018-12-07T09:19:37.276Z,216
2018-12-07T09:20:38.735Z,240
2018-12-07T09:21:40.183Z,256
2018-12-07T09:22:41.762Z,308
2018-12-07T09:23:49.390Z,360
2018-12-07T09:24:44.639Z,376
2018-12-07T09:25:46.316Z,340
2018-12-07T09:26:47.749Z,320
2018-12-07T09:27:49.234Z,380
2018-12-07T09:28:50.854Z,260
2018-12-07T09:29:52.291Z,264
2018-12-07T09:30:53.806Z,296
2018-12-07T09:31:55.443Z,288
2018-12-07T09:32:56.910Z,232
2018-12-07T09:33:58.495Z,276
2018-12-07T09:35:00.089Z,232
2018-12-07T09:36:01.520Z,228
2018-12-07T09:37:02.975Z,248
2018-12-07T09:38:04.575Z,212
2018-12-07T09:39:06.009Z,248
2018-12-07T09:40:07.849Z,200
2018-12-07T09:41:09.286Z,220
2018-12-07T09:42:10.766Z,224
2018-12-07T09:43:12.422Z,276
2018-12-07T09:44:13.880Z,356
2018-12-07T09:45:15.332Z,260
2018-12-07T09:46:17.087Z,352
2018-12-07T09:47:18.542Z,328
2018-12-07T09:48:20.358Z,396
2018-12-07T09:49:21.855Z,360
2018-12-07T09:50:23.663Z,280
2018-12-07T09:51:25.131Z,448
2018-12-07T09:52:27.347Z,392
2018-12-07T09:53:28.895Z,368
2018-12-07T09:54:30.580Z,300
2018-12-07T09:55:32.041Z,304
2018-12-07T09:56:33.689Z,300
2018-12-07T09:57:35.158Z,312
2018-12-07T09:58:36.725Z,348
2018-12-07T09:59:38.201Z,392
2018-12-07T10:00:39.821Z,316
2018-12-07T10:01:41.334Z,232
2018-12-07T10:02:42.880Z,296
2018-12-07T10:03:44.583Z,252
2018-12-07T10:04:46.094Z,244
2018-12-07T10:05:47.557Z,328
2018-12-07T10:06:49.214Z,400
2018-12-07T10:07:50.650Z,308
2018-12-07T10:08:52.138Z,356
2018-12-07T10:09:53.656Z,316
2018-12-07T10:10:55.497Z,292
2018-12-07T10:11:56.934Z,336
2018-12-07T10:12:58.478Z,420
2018-12-07T10:13:59.912Z,368
2018-12-07T10:15:01.456Z,356
2018-12-07T10:16:03.042Z,348
2018-12-07T10:17:04.452Z,292
2018-12-07T10:18:05.928Z,260
2018-12-07T10:19:07.549Z,268
2018-12-07T10:20:09.011Z,308
2018-12-07T10:21:10.464Z,292
2018-12-07T10:22:12.055Z,300
2018-12-07T10:23:13.484Z,276
2018-12-07T10:24:15.183Z,288
2018-12-07T10:25:16.626Z,340
2018-12-07T10:26:18.077Z,272
2018-12-07T10:27:19.780Z,308
2018-12-07T10:28:21.234Z,304
2018-12-07T10:29:22.649Z,280
2018-12-07T10:30:24.192Z,384
2018-12-07T10:31:25.615Z,384
2018-12-07T10:32:27.082Z,432
2018-12-07T10:33:28.722Z,504
2018-12-07T10:34:30.152Z,468
2018-12-07T10:35:31.568Z,392
2018-12-07T10:36:33.227Z,420
2018-12-07T10:37:34.662Z,320
2018-12-07T10:38:36.334Z,340
2018-12-07T10:39:37.750Z,292
2018-12-07T10:40:39.663Z,360
2018-12-07T10:41:41.107Z,424
2018-12-07T10:42:42.659Z,452
2018-12-07T10:43:44.145Z,668
2018-12-07T10:44:45.602Z,752
2018-12-07T10:45:47.027Z,828
2018-12-07T10:46:48.689Z,920
2018-12-07T10:47:50.462Z,944
2018-12-07T10:48:51.775Z,832
2018-12-07T10:49:53.211Z,780
2018-12-07T10:50:54.847Z,596
2018-12-07T10:51:56.292Z,428
2018-12-07T10:52:58.306Z,304
2018-12-07T10:53:59.710Z,288
2018-12-07T10:55:01.202Z,264
2018-12-07T10:56:02.611Z,324
2018-12-07T10:57:04.218Z,336
2018-12-07T10:58:06.021Z,376
2018-12-07T10:59:07.576Z,380
2018-12-07T11:00:08.998Z,332
2018-12-07T11:01:10.458Z,348
2018-12-07T11:02:11.855Z,300
2018-12-07T11:03:13.271Z,280
2018-12-07T11:04:14.772Z,232
2018-12-07T11:05:16.175Z,172
2018-12-07T11:06:17.595Z,132
2018-12-07T11:07:19.093Z,124
2018-12-07T11:08:20.536Z,132
2018-12-07T11:09:21.940Z,148
2018-12-07T11:10:23.415Z,132
2018-12-07T11:11:24.818Z,180
2018-12-07T11:12:26.248Z,188
2018-12-07T11:13:27.736Z,244
2018-12-07T11:14:29.174Z,256
2018-12-07T11:15:33.739Z,232
2018-12-07T11:16:35.363Z,228
2018-12-07T11:17:36.767Z,288
2018-12-07T11:18:38.213Z,316
2018-12-07T11:19:39.614Z,328
2018-12-07T11:20:41.007Z,260
2018-12-07T11:21:42.535Z,312
2018-12-07T11:22:43.939Z,268
2018-12-07T11:23:45.337Z,244
2018-12-07T11:24:46.858Z,336
2018-12-07T11:25:48.264Z,336
2018-12-07T11:26:49.662Z,296
2018-12-07T11:27:51.188Z,280
2018-12-07T11:28:52.715Z,304
2018-12-07T11:29:54.263Z,312
2018-12-07T11:30:55.666Z,396
2018-12-07T11:31:57.144Z,368
2018-12-07T11:32:58.546Z,404
2018-12-07T11:34:00.024Z,312
2018-12-07T11:35:01.427Z,408
2018-12-07T11:36:08.153Z,440
2018-12-07T11:37:04.310Z,476
2018-12-07T11:38:05.708Z,596
2018-12-07T11:39:07.226Z,520
2018-12-07T11:40:08.634Z,588
2018-12-07T11:41:10.032Z,476
2018-12-07T11:42:11.548Z,460
2018-12-07T11:43:12.957Z,384
2018-12-07T11:44:14.431Z,352
2018-12-07T11:45:15.837Z,348
2018-12-07T11:46:17.363Z,328
2018-12-07T11:47:18.719Z,328
2018-12-07T11:48:20.182Z,356
2018-12-07T11:49:21.681Z,376
2018-12-07T11:50:23.082Z,368
2018-12-07T11:51:24.485Z,388
2018-12-07T11:52:25.953Z,416
2018-12-07T11:53:27.356Z,356
2018-12-07T11:54:28.848Z,356
2018-12-07T11:55:30.285Z,316
2018-12-07T11:56:31.929Z,352
2018-12-07T11:57:33.331Z,340
2018-12-07T11:58:34.849Z,312
2018-12-07T11:59:36.255Z,312
2018-12-07T12:00:37.879Z,300
2018-12-07T12:01:44.659Z,304
2018-12-07T12:02:40.771Z,324
2018-12-07T12:03:42.180Z,332
2018-12-07T12:04:44.027Z,368
2018-12-07T12:05:45.510Z,364
2018-12-07T12:06:46.940Z,448
2018-12-07T12:07:48.341Z,456
2018-12-07T12:08:49.829Z,528
2018-12-07T12:09:51.240Z,544
2018-12-07T12:10:52.702Z,404
2018-12-07T12:11:54.098Z,396
2018-12-07T12:12:55.710Z,460
2018-12-07T12:13:57.110Z,432
2018-12-07T12:14:58.516Z,464
2018-12-07T12:16:00.149Z,620
2018-12-07T12:17:01.550Z,576
2018-12-07T12:18:03.322Z,544
2018-12-07T12:19:04.843Z,688
2018-12-07T12:20:06.233Z,704
2018-12-07T12:21:07.721Z,764
2018-12-07T12:22:09.133Z,740
2018-12-07T12:23:10.597Z,748
2018-12-07T12:24:11.999Z,700
2018-12-07T12:25:13.755Z,640
2018-12-07T12:26:15.159Z,636
2018-12-07T12:27:17.146Z,572
2018-12-07T12:28:18.553Z,616
2018-12-07T12:29:19.942Z,680
2018-12-07T12:30:21.502Z,624
2018-12-07T12:31:22.914Z,584
2018-12-07T12:32:30.873Z,680
2018-12-07T12:33:32.552Z,760
2018-12-07T12:34:36.541Z,632
2018-12-07T12:35:38.366Z,544
2018-12-07T12:36:39.748Z,540
2018-12-07T12:37:41.209Z,448
2018-12-07T12:38:42.838Z,452
2018-12-07T12:39:44.240Z,404
2018-12-07T12:40:46.395Z,628
2018-12-07T12:41:47.809Z,568
2018-12-07T12:42:50.359Z,424
2018-12-07T12:43:51.901Z,412
2018-12-07T12:44:53.309Z,348
2018-12-07T12:45:54.707Z,392
2018-12-07T12:46:56.239Z,496
2018-12-07T12:47:57.650Z,500
2018-12-07T12:48:59.047Z,384
2018-12-07T12:50:00.548Z,340
2018-12-07T12:51:01.957Z,348
2018-12-07T12:52:03.361Z,364
2018-12-07T12:53:04.870Z,312
2018-12-07T12:54:06.285Z,292
2018-12-07T12:55:07.745Z,292
2018-12-07T12:56:09.163Z,312
2018-12-07T12:57:10.630Z,344
2018-12-07T12:58:12.040Z,388
2018-12-07T12:59:13.513Z,380
2018-12-07T13:00:14.916Z,404
2018-12-07T13:01:16.393Z,452
2018-12-07T13:02:17.797Z,780
2018-12-07T13:03:19.272Z,836
2018-12-07T13:04:20.677Z,900
2018-12-07T13:05:22.155Z,880
2018-12-07T13:06:23.567Z,736
2018-12-07T13:07:25.033Z,644
2018-12-07T13:08:26.439Z,816
2018-12-07T13:09:27.922Z,780
2018-12-07T13:10:29.321Z,496
2018-12-07T13:11:30.803Z,460
2018-12-07T13:12:32.204Z,508
2018-12-07T13:13:33.721Z,564
2018-12-07T13:14:35.120Z,540
2018-12-07T13:15:36.542Z,600
2018-12-07T13:16:38.018Z,524
2018-12-07T13:17:39.404Z,512
2018-12-07T13:18:40.802Z,584
2018-12-07T13:19:42.203Z,392
2018-12-07T13:20:43.763Z,444
2018-12-07T13:21:45.164Z,672
2018-12-07T13:22:46.647Z,628
2018-12-07T13:23:48.040Z,540
2018-12-07T13:24:49.457Z,580
2018-12-07T13:25:50.969Z,552
2018-12-07T13:26:52.372Z,636
2018-12-07T13:27:53.773Z,576
2018-12-07T13:28:55.287Z,580
2018-12-07T13:29:56.695Z,520
2018-12-07T13:30:58.165Z,476
2018-12-07T13:31:59.564Z,420
2018-12-07T13:33:01.048Z,384
2018-12-07T13:34:02.447Z,308
2018-12-07T13:35:03.912Z,372
2018-12-07T13:36:05.370Z,304
2018-12-07T13:37:06.772Z,272
2018-12-07T13:38:08.195Z,228
2018-12-07T13:39:09.693Z,204
2018-12-07T13:40:11.137Z,172
2018-12-07T13:41:12.575Z,164
2018-12-07T13:42:13.971Z,168
2018-12-07T13:43:15.640Z,160
2018-12-07T13:44:16.842Z,160
2018-12-07T13:45:18.387Z,120
2018-12-07T13:46:19.917Z,116
2018-12-07T13:47:21.642Z,116
2018-12-07T13:48:23.004Z,108
2018-12-07T13:49:24.617Z,148
2018-12-07T13:50:25.992Z,164
2018-12-07T13:51:27.571Z,180
2018-12-07T13:52:28.761Z,164
2018-12-07T13:53:30.342Z,144
2018-12-07T13:54:31.922Z,120
2018-12-07T13:55:33.134Z,124
2018-12-07T13:56:34.634Z,128
2018-12-07T13:57:36.016Z,116
2018-12-07T13:58:37.480Z,132
2018-12-07T13:59:38.997Z,116
2018-12-07T14:00:40.336Z,140
2018-12-07T14:01:41.779Z,168
2018-12-07T14:02:43.362Z,148
2018-12-07T14:03:44.687Z,164
2018-12-07T14:04:46.033Z,152
2018-12-07T14:05:47.689Z,152
2018-12-07T14:06:49.018Z,140
2018-12-07T14:07:50.535Z,132
2018-12-07T14:08:51.865Z,140
2018-12-07T14:09:53.323Z,120
2018-12-07T14:10:54.712Z,136
2018-12-07T14:11:56.256Z,128
2018-12-07T14:12:57.617Z,132
2018-12-07T14:13:59.141Z,164
2018-12-07T14:15:00.623Z,184
2018-12-07T14:16:02.000Z,192
2018-12-07T14:17:03.503Z,204
2018-12-07T14:18:04.831Z,156
2018-12-07T14:19:06.307Z,148
2018-12-07T14:20:07.786Z,168
2018-12-07T14:21:09.129Z,156
2018-12-07T14:22:10.675Z,120
2018-12-07T14:23:11.963Z,120
2018-12-07T14:24:13.641Z,140
2018-12-07T14:25:15.031Z,152
2018-12-07T14:26:16.607Z,88
2018-12-07T14:27:17.744Z,84
2018-12-07T14:28:19.233Z,132
2018-12-07T14:29:20.768Z,124
2018-12-07T14:30:22.190Z,92
2018-12-07T14:31:23.573Z,92
2018-12-07T14:32:25.045Z,96
2018-12-07T14:33:26.322Z,76
2018-12-07T14:34:28.171Z,76
2018-12-07T14:35:29.252Z,60
2018-12-07T14:36:30.847Z,72
2018-12-07T14:37:32.295Z,72
2018-12-07T14:38:33.659Z,52
2018-12-07T14:39:35.201Z,76
2018-12-07T14:40:36.603Z,92
2018-12-07T14:41:38.026Z,72